Airfield :
LOGIN :

Register | Disclaimer

   EN    FR    IT 

 










Legend :    VFR   Marginal VFR   IFR   Intensive IFR   Very Intensive IFR
Visi :
Ceiling :
>= 8 km
>= 3000ft
5 to 8 km
1000 to 3000 ft
1500m to 5 km
500 to 1000 ft
800 to 1500m
200 to 500 ft
< 800m
< 200 ft
Symbols :   Thunderstorms  Fog  Heavy snow  Heavy precipitations  Wind > 20 kt
SIGMETs :     Misc.  Thunderstorms  Icing  Turbulence  Mountain Waves  Volcanic Ashes






- Airport Elevation : 1535 ft
- IATA code : OUD


GMFO - Ouja Angads

CURRENT METAR :
  • 080600Z VRB04KT 6000 OVC003 13/12 Q1022 NOSIG

EXPIRED METARs :
  • 080530Z 32005KT 270V040 6000 OVC005 13/12 Q1022 NOSIG
  • 080500Z 32006KT 280V350 6000 OVC005 13/12 Q1022 NOSIG
  • 080430Z VRB04KT 6000 OVC005 13/12 Q1022 NOSIG
  • 080400Z 33005KT 280V020 6000 OVC005 13/12 Q1023 NOSIG
  • 080330Z 33006KT 270V010 8000 OVC005 13/12 Q1023 NOSIG

TAF TAF GMFO
Valid from the 08 at 06:00 until the 09 at 12:00 UTC


080500Z 0806/0912 32006KT 4000 BR OVC005
BECMG 0816/0820 32014KT 9999 SCT030



MET'MAP, your aeronautical weather chart ! - Copyright ORBIFLY December 2007 - Disclaimer

ORBIFLY MET'MAP TEAM :

Programming & Development : Alexandra Zaïnal
Concept & original design : Baudouin d'Aumeries
Assistance for programming : Marc-Olivier Méhu
Technical & hardware support : Manuel Goepfert

Contact : metmap@orbifly.com




SOURCES & CREDITS :

   NOAA